OAYL weather

Yakawlang (Yakolang) Airport
Ghōr Province, Afghanistan

Public forecast

Using degrees Celsius for public forecast. Weather courtesy of forecast.io.

METAR (pilot weather report)

Report is more than 6 hours old.

Closest report is Chakcharan Airport, 51.3 nm (94.9 km) W. Retrieved 2011/05/06 07:50 UTC (8 years ago):

OACC 060750Z 26005KT 190V320 9999 FEW060 19/// Q1021

TAF (pilot weather forecast)

Forecast is more than 12 hours old.

Closest forecast is Chakcharan Airport, 51.3 nm (94.9 km) W. Retrieved 2013/08/16 06:00 UTC (6 years ago):

TAF OACC 160500Z 1606/1706 VRB05KT CAVOK TEMPO 1612/1616 35015KT